sensor_id;sensor_type;location;lat;lon;timestamp;P1;durP1;ratioP1;P2;durP2;ratioP2
19161;SDS011;9713;48.140;11.530;2024-01-15T00:01:40;10.20;;;4.40;;
19161;SDS011;9713;48.140;11.530;2024-01-15T00:05:24;12.73;;;4.47;;
19161;SDS011;9713;48.140;11.530;2024-01-15T00:09:09;11.83;;;5.03;;
19161;SDS011;9713;48.140;11.530;2024-01-15T00:12:52;8.43;;;4.40;;
19161;SDS011;9713;48.140;11.530;2024-01-15T00:16:34;12.33;;;5.23;;
19161;SDS011;9713;48.140;11.530;2024-01-15T00:20:18;11.00;;;4.73;;
19161;SDS011;9713;48.140;11.530;2024-01-15T00:24:01;11.63;;;4.90;;
19161;SDS011;9713;48.140;11.530;2024-01-15T00:27:45;11.60;;;5.33;;
19161;SDS011;9713;48.140;11.530;2024-01-15T00:31:29;13.30;;;6.03;;
19161;SDS011;9713;48.140;11.530;2024-01-15T00:35:12;10.40;;;5.33;;
19161;SDS011;9713;48.140;11.530;2024-01-15T00:38:55;16.97;;;6.20;;
19161;SDS011;9713;48.140;11.530;2024-01-15T00:42:38;15.67;;;6.70;;
19161;SDS011;9713;48.140;11.530;2024-01-15T00:46:22;13.70;;;6.37;;
19161;SDS011;9713;48.140;11.530;2024-01-15T00:50:06;12.33;;;5.70;;
19161;SDS011;9713;48.140;11.530;2024-01-15T00:53:49;14.00;;;5.60;;
19161;SDS011;9713;48.140;11.530;2024-01-15T00:57:32;14.97;;;6.27;;
19161;SDS011;9713;48.140;11.530;2024-01-15T01:01:15;15.40;;;5.97;;
19161;SDS011;9713;48.140;11.530;2024-01-15T01:04:59;12.50;;;5.90;;
19161;SDS011;9713;48.140;11.530;2024-01-15T01:08:42;15.43;;;6.30;;
19161;SDS011;9713;48.140;11.530;2024-01-15T01:12:25;17.53;;;7.20;;
19161;SDS011;9713;48.140;11.530;2024-01-15T01:16:09;18.70;;;8.27;;
19161;SDS011;9713;48.140;11.530;2024-01-15T01:19:51;19.97;;;8.70;;
19161;SDS011;9713;48.140;11.530;2024-01-15T01:23:36;21.57;;;9.13;;
19161;SDS011;9713;48.140;11.530;2024-01-15T01:27:19;19.33;;;8.13;;
19161;SDS011;9713;48.140;11.530;2024-01-15T01:31:02;17.57;;;8.57;;
19161;SDS011;9713;48.140;11.530;2024-01-15T01:34:45;20.17;;;8.77;;
19161;SDS011;9713;48.140;11.530;2024-01-15T01:38:28;20.40;;;8.30;;
19161;SDS011;9713;48.140;11.530;2024-01-15T01:42:12;19.67;;;7.87;;
19161;SDS011;9713;48.140;11.530;2024-01-15T01:45:56;18.60;;;8.27;;
19161;SDS011;9713;48.140;11.530;2024-01-15T01:49:39;19.77;;;8.17;;
19161;SDS011;9713;48.140;11.530;2024-01-15T01:53:23;18.80;;;8.73;;
19161;SDS011;9713;48.140;11.530;2024-01-15T01:57:07;18.97;;;8.10;;
19161;SDS011;9713;48.140;11.530;2024-01-15T02:00:51;18.23;;;7.80;;
19161;SDS011;9713;48.140;11.530;2024-01-15T02:04:34;16.53;;;7.33;;
19161;SDS011;9713;48.140;11.530;2024-01-15T02:08:18;16.17;;;7.40;;
19161;SDS011;9713;48.140;11.530;2024-01-15T02:12:01;16.10;;;6.70;;
19161;SDS011;9713;48.140;11.530;2024-01-15T02:15:44;20.43;;;7.60;;
19161;SDS011;9713;48.140;11.530;2024-01-15T02:19:28;15.63;;;6.80;;
19161;SDS011;9713;48.140;11.530;2024-01-15T02:23:13;18.10;;;7.43;;
19161;SDS011;9713;48.140;11.530;2024-01-15T02:26:57;17.83;;;7.30;;
19161;SDS011;9713;48.140;11.530;2024-01-15T02:30:40;23.87;;;8.60;;
19161;SDS011;9713;48.140;11.530;2024-01-15T02:34:24;17.83;;;6.97;;
19161;SDS011;9713;48.140;11.530;2024-01-15T02:38:07;18.20;;;7.23;;
19161;SDS011;9713;48.140;11.530;2024-01-15T02:41:52;16.90;;;7.63;;
19161;SDS011;9713;48.140;11.530;2024-01-15T02:45:37;16.50;;;7.50;;
19161;SDS011;9713;48.140;11.530;2024-01-15T02:49:20;19.13;;;7.40;;
19161;SDS011;9713;48.140;11.530;2024-01-15T02:53:04;18.10;;;7.27;;
19161;SDS011;9713;48.140;11.530;2024-01-15T02:56:47;17.57;;;7.17;;
19161;SDS011;9713;48.140;11.530;2024-01-15T03:00:31;16.97;;;7.30;;
19161;SDS011;9713;48.140;11.530;2024-01-15T03:04:14;19.90;;;7.50;;
19161;SDS011;9713;48.140;11.530;2024-01-15T03:07:58;16.37;;;6.73;;
19161;SDS011;9713;48.140;11.530;2024-01-15T03:11:41;17.27;;;7.10;;
19161;SDS011;9713;48.140;11.530;2024-01-15T03:15:24;14.73;;;6.77;;
19161;SDS011;9713;48.140;11.530;2024-01-15T03:19:08;15.40;;;6.03;;
19161;SDS011;9713;48.140;11.530;2024-01-15T03:22:51;14.90;;;6.17;;
19161;SDS011;9713;48.140;11.530;2024-01-15T03:26:34;15.73;;;6.63;;
19161;SDS011;9713;48.140;11.530;2024-01-15T03:30:17;16.73;;;7.10;;
19161;SDS011;9713;48.140;11.530;2024-01-15T03:34:00;16.93;;;6.93;;
19161;SDS011;9713;48.140;11.530;2024-01-15T03:37:45;13.20;;;5.70;;
19161;SDS011;9713;48.140;11.530;2024-01-15T03:41:28;15.63;;;6.20;;
19161;SDS011;9713;48.140;11.530;2024-01-15T03:45:11;15.13;;;6.27;;
19161;SDS011;9713;48.140;11.530;2024-01-15T03:48:54;16.10;;;6.60;;
19161;SDS011;9713;48.140;11.530;2024-01-15T03:52:37;14.53;;;5.80;;
19161;SDS011;9713;48.140;11.530;2024-01-15T03:56:22;15.70;;;6.30;;
19161;SDS011;9713;48.140;11.530;2024-01-15T04:00:05;15.33;;;5.90;;
19161;SDS011;9713;48.140;11.530;2024-01-15T04:03:49;16.23;;;6.43;;
19161;SDS011;9713;48.140;11.530;2024-01-15T04:07:32;16.70;;;6.57;;
19161;SDS011;9713;48.140;11.530;2024-01-15T04:11:15;13.37;;;5.90;;
19161;SDS011;9713;48.140;11.530;2024-01-15T04:14:59;12.63;;;5.40;;
19161;SDS011;9713;48.140;11.530;2024-01-15T04:18:42;15.00;;;5.93;;
19161;SDS011;9713;48.140;11.530;2024-01-15T04:22:26;11.43;;;5.30;;
19161;SDS011;9713;48.140;11.530;2024-01-15T04:26:09;12.77;;;5.70;;
19161;SDS011;9713;48.140;11.530;2024-01-15T04:29:52;13.27;;;5.70;;
19161;SDS011;9713;48.140;11.530;2024-01-15T04:33:37;14.73;;;5.83;;
19161;SDS011;9713;48.140;11.530;2024-01-15T04:37:20;12.13;;;5.13;;
19161;SDS011;9713;48.140;11.530;2024-01-15T04:41:03;13.37;;;5.80;;
19161;SDS011;9713;48.140;11.530;2024-01-15T04:44:46;11.60;;;5.23;;
19161;SDS011;9713;48.140;11.530;2024-01-15T04:48:29;12.40;;;5.00;;
19161;SDS011;9713;48.140;11.530;2024-01-15T04:52:13;13.87;;;5.47;;
19161;SDS011;9713;48.140;11.530;2024-01-15T04:55:56;11.37;;;5.30;;
19161;SDS011;9713;48.140;11.530;2024-01-15T04:59:39;11.27;;;5.00;;
19161;SDS011;9713;48.140;11.530;2024-01-15T05:03:22;11.07;;;5.50;;
19161;SDS011;9713;48.140;11.530;2024-01-15T05:07:05;11.83;;;4.90;;
19161;SDS011;9713;48.140;11.530;2024-01-15T05:10:51;11.17;;;4.97;;
19161;SDS011;9713;48.140;11.530;2024-01-15T05:14:34;14.83;;;5.57;;
19161;SDS011;9713;48.140;11.530;2024-01-15T05:18:17;10.23;;;5.13;;
19161;SDS011;9713;48.140;11.530;2024-01-15T05:22:00;11.93;;;5.00;;
19161;SDS011;9713;48.140;11.530;2024-01-15T05:25:43;9.53;;;4.03;;
19161;SDS011;9713;48.140;11.530;2024-01-15T05:29:27;10.43;;;5.13;;
19161;SDS011;9713;48.140;11.530;2024-01-15T05:33:10;12.37;;;5.10;;
19161;SDS011;9713;48.140;11.530;2024-01-15T05:36:53;11.47;;;4.80;;
19161;SDS011;9713;48.140;11.530;2024-01-15T05:40:36;12.37;;;4.90;;
19161;SDS011;9713;48.140;11.530;2024-01-15T05:44:19;13.53;;;5.27;;
19161;SDS011;9713;48.140;11.530;2024-01-15T05:48:04;10.47;;;5.00;;
19161;SDS011;9713;48.140;11.530;2024-01-15T05:51:47;11.13;;;4.90;;
19161;SDS011;9713;48.140;11.530;2024-01-15T05:55:30;10.20;;;4.80;;
19161;SDS011;9713;48.140;11.530;2024-01-15T05:59:13;11.57;;;4.90;;
19161;SDS011;9713;48.140;11.530;2024-01-15T06:02:56;10.77;;;4.73;;
19161;SDS011;9713;48.140;11.530;2024-01-15T06:06:40;10.50;;;4.90;;
19161;SDS011;9713;48.140;11.530;2024-01-15T06:10:26;12.43;;;5.00;;
19161;SDS011;9713;48.140;11.530;2024-01-15T06:14:09;16.33;;;4.83;;
19161;SDS011;9713;48.140;11.530;2024-01-15T06:17:52;11.77;;;4.80;;
19161;SDS011;9713;48.140;11.530;2024-01-15T06:21:35;12.40;;;5.10;;
19161;SDS011;9713;48.140;11.530;2024-01-15T06:25:20;9.60;;;4.30;;
19161;SDS011;9713;48.140;11.530;2024-01-15T06:29:03;8.37;;;4.47;;
19161;SDS011;9713;48.140;11.530;2024-01-15T06:32:46;10.50;;;4.60;;
19161;SDS011;9713;48.140;11.530;2024-01-15T06:36:29;10.50;;;4.87;;
19161;SDS011;9713;48.140;11.530;2024-01-15T06:40:12;12.30;;;5.00;;
19161;SDS011;9713;48.140;11.530;2024-01-15T06:43:57;13.63;;;5.60;;
19161;SDS011;9713;48.140;11.530;2024-01-15T06:47:40;9.83;;;4.50;;
19161;SDS011;9713;48.140;11.530;2024-01-15T06:51:24;12.17;;;4.87;;
19161;SDS011;9713;48.140;11.530;2024-01-15T06:55:07;11.17;;;4.63;;
19161;SDS011;9713;48.140;11.530;2024-01-15T06:58:50;16.57;;;5.03;;
19161;SDS011;9713;48.140;11.530;2024-01-15T07:02:34;10.90;;;5.07;;
19161;SDS011;9713;48.140;11.530;2024-01-15T07:06:17;11.73;;;5.03;;
19161;SDS011;9713;48.140;11.530;2024-01-15T07:10:00;12.00;;;4.70;;
19161;SDS011;9713;48.140;11.530;2024-01-15T07:13:43;12.47;;;5.47;;
19161;SDS011;9713;48.140;11.530;2024-01-15T07:17:29;11.63;;;5.30;;
19161;SDS011;9713;48.140;11.530;2024-01-15T07:21:13;10.87;;;5.07;;
19161;SDS011;9713;48.140;11.530;2024-01-15T07:24:57;11.53;;;5.00;;
19161;SDS011;9713;48.140;11.530;2024-01-15T07:28:40;11.83;;;4.93;;
19161;SDS011;9713;48.140;11.530;2024-01-15T07:32:23;12.77;;;5.47;;
19161;SDS011;9713;48.140;11.530;2024-01-15T07:36:06;12.40;;;5.37;;
19161;SDS011;9713;48.140;11.530;2024-01-15T07:39:51;10.60;;;5.17;;
19161;SDS011;9713;48.140;11.530;2024-01-15T07:43:34;12.73;;;5.40;;
19161;SDS011;9713;48.140;11.530;2024-01-15T07:47:17;10.63;;;4.77;;
19161;SDS011;9713;48.140;11.530;2024-01-15T07:51:00;14.53;;;5.60;;
19161;SDS011;9713;48.140;11.530;2024-01-15T07:54:43;12.10;;;5.50;;
19161;SDS011;9713;48.140;11.530;2024-01-15T07:58:27;12.73;;;5.30;;
19161;SDS011;9713;48.140;11.530;2024-01-15T08:02:10;13.73;;;5.63;;
19161;SDS011;9713;48.140;11.530;2024-01-15T08:05:53;12.60;;;5.47;;
19161;SDS011;9713;48.140;11.530;2024-01-15T08:09:39;13.17;;;5.37;;
19161;SDS011;9713;48.140;11.530;2024-01-15T08:13:21;12.53;;;5.60;;
19161;SDS011;9713;48.140;11.530;2024-01-15T08:17:06;11.33;;;5.20;;
19161;SDS011;9713;48.140;11.530;2024-01-15T08:20:49;10.27;;;4.87;;
19161;SDS011;9713;48.140;11.530;2024-01-15T08:24:33;10.97;;;5.00;;
19161;SDS011;9713;48.140;11.530;2024-01-15T08:28:16;11.83;;;4.90;;
19161;SDS011;9713;48.140;11.530;2024-01-15T08:31:59;10.63;;;5.17;;
19161;SDS011;9713;48.140;11.530;2024-01-15T08:35:43;11.13;;;4.70;;
19161;SDS011;9713;48.140;11.530;2024-01-15T08:39:27;19.17;;;5.50;;
19161;SDS011;9713;48.140;11.530;2024-01-15T08:43:10;14.73;;;5.40;;
19161;SDS011;9713;48.140;11.530;2024-01-15T08:46:53;11.53;;;5.00;;
19161;SDS011;9713;48.140;11.530;2024-01-15T08:50:36;12.80;;;5.03;;
19161;SDS011;9713;48.140;11.530;2024-01-15T08:54:20;12.37;;;5.10;;
19161;SDS011;9713;48.140;11.530;2024-01-15T08:58:03;11.87;;;5.37;;
19161;SDS011;9713;48.140;11.530;2024-01-15T09:01:46;10.87;;;5.17;;
19161;SDS011;9713;48.140;11.530;2024-01-15T09:05:29;10.13;;;4.90;;
19161;SDS011;9713;48.140;11.530;2024-01-15T09:09:12;11.77;;;5.10;;
19161;SDS011;9713;48.140;11.530;2024-01-15T09:12:57;11.70;;;4.73;;
19161;SDS011;9713;48.140;11.530;2024-01-15T09:16:40;11.47;;;4.80;;
19161;SDS011;9713;48.140;11.530;2024-01-15T09:20:23;12.20;;;5.43;;
19161;SDS011;9713;48.140;11.530;2024-01-15T09:24:07;11.73;;;4.97;;
19161;SDS011;9713;48.140;11.530;2024-01-15T09:27:50;12.47;;;5.00;;
19161;SDS011;9713;48.140;11.530;2024-01-15T09:31:34;13.13;;;4.97;;
19161;SDS011;9713;48.140;11.530;2024-01-15T09:35:17;13.33;;;5.17;;
19161;SDS011;9713;48.140;11.530;2024-01-15T09:39:04;11.43;;;4.83;;
19161;SDS011;9713;48.140;11.530;2024-01-15T09:42:49;10.07;;;4.63;;
19161;SDS011;9713;48.140;11.530;2024-01-15T09:46:34;8.83;;;4.37;;
19161;SDS011;9713;48.140;11.530;2024-01-15T09:50:17;12.17;;;4.53;;
19161;SDS011;9713;48.140;11.530;2024-01-15T09:54:02;12.07;;;4.40;;
19161;SDS011;9713;48.140;11.530;2024-01-15T09:57:45;9.17;;;4.33;;
19161;SDS011;9713;48.140;11.530;2024-01-15T10:01:28;7.00;;;3.80;;
19161;SDS011;9713;48.140;11.530;2024-01-15T10:05:13;8.27;;;4.03;;
19161;SDS011;9713;48.140;11.530;2024-01-15T10:08:57;9.23;;;4.30;;
19161;SDS011;9713;48.140;11.530;2024-01-15T10:12:40;8.60;;;3.90;;
19161;SDS011;9713;48.140;11.530;2024-01-15T10:16:25;9.93;;;4.17;;
19161;SDS011;9713;48.140;11.530;2024-01-15T10:20:08;7.30;;;3.50;;
19161;SDS011;9713;48.140;11.530;2024-01-15T10:23:54;7.50;;;3.60;;
19161;SDS011;9713;48.140;11.530;2024-01-15T10:27:37;7.33;;;3.20;;
19161;SDS011;9713;48.140;11.530;2024-01-15T10:31:20;8.43;;;3.40;;
19161;SDS011;9713;48.140;11.530;2024-01-15T10:35:07;8.77;;;4.00;;
19161;SDS011;9713;48.140;11.530;2024-01-15T10:38:50;6.47;;;3.47;;
19161;SDS011;9713;48.140;11.530;2024-01-15T10:42:34;9.23;;;4.23;;
19161;SDS011;9713;48.140;11.530;2024-01-15T10:46:20;8.40;;;3.70;;
19161;SDS011;9713;48.140;11.530;2024-01-15T10:50:03;7.97;;;3.13;;
19161;SDS011;9713;48.140;11.530;2024-01-15T10:53:48;6.10;;;3.20;;
19161;SDS011;9713;48.140;11.530;2024-01-15T10:57:31;8.20;;;3.67;;
19161;SDS011;9713;48.140;11.530;2024-01-15T11:01:15;8.47;;;2.90;;
19161;SDS011;9713;48.140;11.530;2024-01-15T11:04:59;8.13;;;3.70;;
19161;SDS011;9713;48.140;11.530;2024-01-15T11:08:42;6.60;;;3.37;;
19161;SDS011;9713;48.140;11.530;2024-01-15T11:12:25;8.13;;;3.63;;
19161;SDS011;9713;48.140;11.530;2024-01-15T11:16:10;8.67;;;3.40;;
19161;SDS011;9713;48.140;11.530;2024-01-15T11:19:55;9.13;;;3.73;;
19161;SDS011;9713;48.140;11.530;2024-01-15T11:23:44;7.43;;;3.23;;
19161;SDS011;9713;48.140;11.530;2024-01-15T11:27:39;8.87;;;3.67;;
19161;SDS011;9713;48.140;11.530;2024-01-15T11:31:25;5.03;;;2.93;;
19161;SDS011;9713;48.140;11.530;2024-01-15T11:35:11;7.00;;;2.90;;
19161;SDS011;9713;48.140;11.530;2024-01-15T11:38:56;6.50;;;3.00;;
19161;SDS011;9713;48.140;11.530;2024-01-15T11:42:39;6.63;;;3.17;;
19161;SDS011;9713;48.140;11.530;2024-01-15T11:46:22;6.10;;;2.90;;
19161;SDS011;9713;48.140;11.530;2024-01-15T11:50:08;6.93;;;3.13;;
19161;SDS011;9713;48.140;11.530;2024-01-15T11:53:54;6.17;;;2.97;;
19161;SDS011;9713;48.140;11.530;2024-01-15T11:57:42;5.67;;;2.70;;
19161;SDS011;9713;48.140;11.530;2024-01-15T12:01:28;6.07;;;3.40;;
19161;SDS011;9713;48.140;11.530;2024-01-15T12:05:11;4.50;;;2.47;;
19161;SDS011;9713;48.140;11.530;2024-01-15T12:09:06;6.73;;;3.27;;
19161;SDS011;9713;48.140;11.530;2024-01-15T12:12:54;7.10;;;2.87;;
19161;SDS011;9713;48.140;11.530;2024-01-15T12:16:40;5.17;;;2.60;;
19161;SDS011;9713;48.140;11.530;2024-01-15T12:20:23;6.97;;;3.03;;
19161;SDS011;9713;48.140;11.530;2024-01-15T12:24:08;4.10;;;2.17;;
19161;SDS011;9713;48.140;11.530;2024-01-15T12:27:51;5.73;;;2.80;;
19161;SDS011;9713;48.140;11.530;2024-01-15T12:31:34;4.20;;;2.33;;
19161;SDS011;9713;48.140;11.530;2024-01-15T12:35:18;5.70;;;2.43;;
19161;SDS011;9713;48.140;11.530;2024-01-15T12:39:01;4.03;;;2.13;;
19161;SDS011;9713;48.140;11.530;2024-01-15T12:42:45;5.27;;;2.90;;
19161;SDS011;9713;48.140;11.530;2024-01-15T12:46:28;5.17;;;2.63;;
19161;SDS011;9713;48.140;11.530;2024-01-15T12:50:11;5.13;;;2.73;;
19161;SDS011;9713;48.140;11.530;2024-01-15T12:54:01;6.17;;;2.67;;
19161;SDS011;9713;48.140;11.530;2024-01-15T12:57:45;6.10;;;2.97;;
19161;SDS011;9713;48.140;11.530;2024-01-15T13:01:28;5.77;;;2.70;;
19161;SDS011;9713;48.140;11.530;2024-01-15T13:05:11;4.20;;;2.50;;
19161;SDS011;9713;48.140;11.530;2024-01-15T13:08:56;5.27;;;2.73;;
19161;SDS011;9713;48.140;11.530;2024-01-15T13:12:40;5.07;;;2.30;;
19161;SDS011;9713;48.140;11.530;2024-01-15T13:16:25;5.83;;;2.63;;
19161;SDS011;9713;48.140;11.530;2024-01-15T13:20:10;5.10;;;2.60;;
19161;SDS011;9713;48.140;11.530;2024-01-15T13:23:55;7.53;;;3.23;;
19161;SDS011;9713;48.140;11.530;2024-01-15T13:27:39;6.00;;;2.80;;
19161;SDS011;9713;48.140;11.530;2024-01-15T13:31:24;5.73;;;2.77;;
19161;SDS011;9713;48.140;11.530;2024-01-15T13:35:08;5.53;;;3.03;;
19161;SDS011;9713;48.140;11.530;2024-01-15T13:38:55;6.10;;;2.67;;
19161;SDS011;9713;48.140;11.530;2024-01-15T13:42:38;5.97;;;2.80;;
19161;SDS011;9713;48.140;11.530;2024-01-15T13:46:23;5.37;;;2.57;;
19161;SDS011;9713;48.140;11.530;2024-01-15T13:50:09;5.93;;;3.00;;
19161;SDS011;9713;48.140;11.530;2024-01-15T13:53:52;5.83;;;2.93;;
19161;SDS011;9713;48.140;11.530;2024-01-15T13:57:35;5.73;;;3.03;;
19161;SDS011;9713;48.140;11.530;2024-01-15T14:01:18;7.70;;;3.30;;
19161;SDS011;9713;48.140;11.530;2024-01-15T14:05:03;6.60;;;3.30;;
19161;SDS011;9713;48.140;11.530;2024-01-15T14:08:46;6.33;;;3.10;;
19161;SDS011;9713;48.140;11.530;2024-01-15T14:12:29;7.50;;;2.90;;
19161;SDS011;9713;48.140;11.530;2024-01-15T14:16:12;5.53;;;3.20;;
19161;SDS011;9713;48.140;11.530;2024-01-15T14:19:55;5.83;;;2.87;;
19161;SDS011;9713;48.140;11.530;2024-01-15T14:23:40;8.33;;;3.40;;
19161;SDS011;9713;48.140;11.530;2024-01-15T14:27:23;5.03;;;3.17;;
19161;SDS011;9713;48.140;11.530;2024-01-15T14:31:06;6.77;;;3.30;;
19161;SDS011;9713;48.140;11.530;2024-01-15T14:34:50;7.17;;;2.87;;
19161;SDS011;9713;48.140;11.530;2024-01-15T14:38:33;6.30;;;2.87;;
19161;SDS011;9713;48.140;11.530;2024-01-15T14:42:17;7.03;;;3.50;;
19161;SDS011;9713;48.140;11.530;2024-01-15T14:46:00;6.03;;;3.00;;
19161;SDS011;9713;48.140;11.530;2024-01-15T14:49:43;6.20;;;2.87;;
19161;SDS011;9713;48.140;11.530;2024-01-15T14:53:26;5.77;;;2.93;;
19161;SDS011;9713;48.140;11.530;2024-01-15T14:57:09;6.37;;;3.37;;
19161;SDS011;9713;48.140;11.530;2024-01-15T15:00:54;6.30;;;2.80;;
19161;SDS011;9713;48.140;11.530;2024-01-15T15:04:37;5.73;;;3.23;;
19161;SDS011;9713;48.140;11.530;2024-01-15T15:08:21;5.50;;;3.00;;
19161;SDS011;9713;48.140;11.530;2024-01-15T15:12:04;7.50;;;3.50;;
19161;SDS011;9713;48.140;11.530;2024-01-15T15:15:48;6.23;;;3.13;;
19161;SDS011;9713;48.140;11.530;2024-01-15T15:19:35;7.83;;;3.70;;
19161;SDS011;9713;48.140;11.530;2024-01-15T15:23:18;7.80;;;3.47;;
19161;SDS011;9713;48.140;11.530;2024-01-15T15:27:01;7.17;;;3.50;;
19161;SDS011;9713;48.140;11.530;2024-01-15T15:30:44;7.70;;;3.90;;
19161;SDS011;9713;48.140;11.530;2024-01-15T15:34:27;7.23;;;3.70;;
19161;SDS011;9713;48.140;11.530;2024-01-15T15:38:12;6.60;;;3.67;;
19161;SDS011;9713;48.140;11.530;2024-01-15T15:41:55;8.97;;;3.70;;
19161;SDS011;9713;48.140;11.530;2024-01-15T15:45:38;7.37;;;3.40;;
19161;SDS011;9713;48.140;11.530;2024-01-15T15:49:21;7.10;;;3.70;;
19161;SDS011;9713;48.140;11.530;2024-01-15T15:53:04;6.50;;;3.47;;
19161;SDS011;9713;48.140;11.530;2024-01-15T15:56:48;7.50;;;4.00;;
19161;SDS011;9713;48.140;11.530;2024-01-15T16:00:33;18.67;;;8.63;;
19161;SDS011;9713;48.140;11.530;2024-01-15T16:04:16;7.87;;;4.10;;
19161;SDS011;9713;48.140;11.530;2024-01-15T16:08:00;11.40;;;5.00;;
19161;SDS011;9713;48.140;11.530;2024-01-15T16:11:44;15.80;;;6.97;;
19161;SDS011;9713;48.140;11.530;2024-01-15T16:15:29;9.60;;;4.40;;
19161;SDS011;9713;48.140;11.530;2024-01-15T16:19:12;9.30;;;4.20;;
19161;SDS011;9713;48.140;11.530;2024-01-15T16:23:15;10.03;;;4.60;;
19161;SDS011;9713;48.140;11.530;2024-01-15T16:27:18;7.83;;;4.30;;
19161;SDS011;9713;48.140;11.530;2024-01-15T16:31:02;10.50;;;5.17;;
19161;SDS011;9713;48.140;11.530;2024-01-15T16:34:50;10.07;;;4.27;;
19161;SDS011;9713;48.140;11.530;2024-01-15T16:38:33;8.90;;;4.50;;
19161;SDS011;9713;48.140;11.530;2024-01-15T16:42:16;12.40;;;4.87;;
19161;SDS011;9713;48.140;11.530;2024-01-15T16:46:00;10.17;;;4.37;;
19161;SDS011;9713;48.140;11.530;2024-01-15T16:49:44;11.70;;;5.27;;
19161;SDS011;9713;48.140;11.530;2024-01-15T16:53:27;11.23;;;4.70;;
19161;SDS011;9713;48.140;11.530;2024-01-15T16:57:10;10.33;;;4.77;;
19161;SDS011;9713;48.140;11.530;2024-01-15T17:00:53;9.83;;;4.90;;
19161;SDS011;9713;48.140;11.530;2024-01-15T17:04:37;19.37;;;8.43;;
19161;SDS011;9713;48.140;11.530;2024-01-15T17:08:21;12.87;;;5.40;;
19161;SDS011;9713;48.140;11.530;2024-01-15T17:12:05;10.87;;;4.97;;
19161;SDS011;9713;48.140;11.530;2024-01-15T17:15:48;12.30;;;5.13;;
19161;SDS011;9713;48.140;11.530;2024-01-15T17:19:31;11.83;;;6.13;;
19161;SDS011;9713;48.140;11.530;2024-01-15T17:23:14;17.67;;;8.40;;
19161;SDS011;9713;48.140;11.530;2024-01-15T17:26:58;16.77;;;6.87;;
19161;SDS011;9713;48.140;11.530;2024-01-15T17:30:41;18.30;;;8.43;;
19161;SDS011;9713;48.140;11.530;2024-01-15T17:34:26;14.30;;;6.47;;
19161;SDS011;9713;48.140;11.530;2024-01-15T17:38:09;16.03;;;6.77;;
19161;SDS011;9713;48.140;11.530;2024-01-15T17:41:52;16.67;;;6.80;;
19161;SDS011;9713;48.140;11.530;2024-01-15T17:45:36;12.57;;;6.73;;
19161;SDS011;9713;48.140;11.530;2024-01-15T17:49:19;7.37;;;3.40;;
19161;SDS011;9713;48.140;11.530;2024-01-15T17:53:03;6.50;;;2.60;;
19161;SDS011;9713;48.140;11.530;2024-01-15T17:56:46;4.77;;;2.50;;
19161;SDS011;9713;48.140;11.530;2024-01-15T18:00:29;5.37;;;3.00;;
19161;SDS011;9713;48.140;11.530;2024-01-15T18:04:15;8.60;;;3.43;;
19161;SDS011;9713;48.140;11.530;2024-01-15T18:08:00;11.27;;;3.93;;
19161;SDS011;9713;48.140;11.530;2024-01-15T18:11:43;7.20;;;3.43;;
19161;SDS011;9713;48.140;11.530;2024-01-15T18:15:27;8.23;;;4.40;;
19161;SDS011;9713;48.140;11.530;2024-01-15T18:19:10;10.90;;;4.80;;
19161;SDS011;9713;48.140;11.530;2024-01-15T18:22:55;9.73;;;4.70;;
19161;SDS011;9713;48.140;11.530;2024-01-15T18:26:38;13.17;;;5.70;;
19161;SDS011;9713;48.140;11.530;2024-01-15T18:30:21;16.67;;;4.97;;
19161;SDS011;9713;48.140;11.530;2024-01-15T18:34:04;17.87;;;5.20;;
19161;SDS011;9713;48.140;11.530;2024-01-15T18:37:47;11.33;;;5.17;;
19161;SDS011;9713;48.140;11.530;2024-01-15T18:41:32;13.67;;;5.00;;
19161;SDS011;9713;48.140;11.530;2024-01-15T18:45:15;13.60;;;5.80;;
19161;SDS011;9713;48.140;11.530;2024-01-15T18:48:58;8.73;;;5.20;;
19161;SDS011;9713;48.140;11.530;2024-01-15T18:52:41;17.37;;;5.67;;
19161;SDS011;9713;48.140;11.530;2024-01-15T18:56:27;14.60;;;5.00;;
19161;SDS011;9713;48.140;11.530;2024-01-15T19:00:13;10.20;;;4.60;;
19161;SDS011;9713;48.140;11.530;2024-01-15T19:03:56;11.23;;;4.63;;
19161;SDS011;9713;48.140;11.530;2024-01-15T19:07:40;8.53;;;4.33;;
19161;SDS011;9713;48.140;11.530;2024-01-15T19:11:27;10.13;;;5.07;;
19161;SDS011;9713;48.140;11.530;2024-01-15T19:15:11;10.17;;;4.57;;
19161;SDS011;9713;48.140;11.530;2024-01-15T19:18:58;12.90;;;4.20;;
19161;SDS011;9713;48.140;11.530;2024-01-15T19:22:41;8.40;;;4.20;;
19161;SDS011;9713;48.140;11.530;2024-01-15T19:26:24;9.17;;;4.43;;
19161;SDS011;9713;48.140;11.530;2024-01-15T19:30:07;12.23;;;4.67;;
19161;SDS011;9713;48.140;11.530;2024-01-15T19:33:56;10.50;;;4.43;;
19161;SDS011;9713;48.140;11.530;2024-01-15T19:37:39;9.33;;;4.00;;
19161;SDS011;9713;48.140;11.530;2024-01-15T19:41:22;8.33;;;4.00;;
19161;SDS011;9713;48.140;11.530;2024-01-15T19:45:06;7.17;;;3.50;;
19161;SDS011;9713;48.140;11.530;2024-01-15T19:48:49;7.67;;;3.97;;
19161;SDS011;9713;48.140;11.530;2024-01-15T19:52:33;8.10;;;4.37;;
19161;SDS011;9713;48.140;11.530;2024-01-15T19:56:16;6.70;;;3.80;;
19161;SDS011;9713;48.140;11.530;2024-01-15T20:00:01;7.43;;;4.00;;
19161;SDS011;9713;48.140;11.530;2024-01-15T20:03:46;7.63;;;3.70;;
19161;SDS011;9713;48.140;11.530;2024-01-15T20:07:29;9.20;;;3.87;;
19161;SDS011;9713;48.140;11.530;2024-01-15T20:11:13;7.80;;;3.70;;
19161;SDS011;9713;48.140;11.530;2024-01-15T20:14:56;7.53;;;3.33;;
19161;SDS011;9713;48.140;11.530;2024-01-15T20:18:40;6.43;;;3.70;;
19161;SDS011;9713;48.140;11.530;2024-01-15T20:22:24;8.20;;;3.43;;
19161;SDS011;9713;48.140;11.530;2024-01-15T20:26:07;7.37;;;3.63;;
19161;SDS011;9713;48.140;11.530;2024-01-15T20:29:51;9.37;;;3.53;;
19161;SDS011;9713;48.140;11.530;2024-01-15T20:33:34;7.90;;;3.73;;
19161;SDS011;9713;48.140;11.530;2024-01-15T20:37:17;6.10;;;3.57;;
19161;SDS011;9713;48.140;11.530;2024-01-15T20:41:00;8.13;;;3.80;;
19161;SDS011;9713;48.140;11.530;2024-01-15T20:44:43;7.70;;;3.80;;
19161;SDS011;9713;48.140;11.530;2024-01-15T20:48:28;8.50;;;3.77;;
19161;SDS011;9713;48.140;11.530;2024-01-15T20:52:12;7.27;;;3.70;;
19161;SDS011;9713;48.140;11.530;2024-01-15T20:55:55;7.47;;;3.70;;
19161;SDS011;9713;48.140;11.530;2024-01-15T20:59:38;7.23;;;3.97;;
19161;SDS011;9713;48.140;11.530;2024-01-15T21:03:21;8.00;;;3.57;;
19161;SDS011;9713;48.140;11.530;2024-01-15T21:07:06;8.63;;;3.53;;
19161;SDS011;9713;48.140;11.530;2024-01-15T21:10:49;9.30;;;4.17;;
19161;SDS011;9713;48.140;11.530;2024-01-15T21:14:32;8.50;;;3.90;;
19161;SDS011;9713;48.140;11.530;2024-01-15T21:18:18;6.93;;;4.03;;
19161;SDS011;9713;48.140;11.530;2024-01-15T21:22:01;8.57;;;4.00;;
19161;SDS011;9713;48.140;11.530;2024-01-15T21:25:45;8.00;;;3.87;;
19161;SDS011;9713;48.140;11.530;2024-01-15T21:29:29;7.93;;;3.90;;
19161;SDS011;9713;48.140;11.530;2024-01-15T21:33:12;6.30;;;3.70;;
19161;SDS011;9713;48.140;11.530;2024-01-15T21:36:55;6.83;;;3.50;;
19161;SDS011;9713;48.140;11.530;2024-01-15T21:40:38;9.47;;;4.07;;
19161;SDS011;9713;48.140;11.530;2024-01-15T21:44:22;11.93;;;4.63;;
19161;SDS011;9713;48.140;11.530;2024-01-15T21:48:05;7.83;;;4.10;;
19161;SDS011;9713;48.140;11.530;2024-01-15T21:51:49;6.70;;;3.80;;
19161;SDS011;9713;48.140;11.530;2024-01-15T21:55:31;6.27;;;3.53;;
19161;SDS011;9713;48.140;11.530;2024-01-15T21:59:14;6.17;;;3.30;;
19161;SDS011;9713;48.140;11.530;2024-01-15T22:02:59;7.27;;;3.57;;
19161;SDS011;9713;48.140;11.530;2024-01-15T22:06:42;10.03;;;3.47;;
19161;SDS011;9713;48.140;11.530;2024-01-15T22:10:25;8.50;;;3.60;;
19161;SDS011;9713;48.140;11.530;2024-01-15T22:14:08;7.70;;;3.50;;
19161;SDS011;9713;48.140;11.530;2024-01-15T22:17:51;7.00;;;3.40;;